Overview Statistics Trail Chart Weather Telemetry Raw packets
 

This is the latest recevied weather packets stored in our database for station/object KY0TEQ-13. If no packets are shown the sender has not sent any weather packets the latest 10 day(s).

<< 84 85 86 87 88 89 90 >>
Time Temp. Humidity Pressure Rain* Wind** Luminosity Snow
1788072123 14.44° C 70% 1311.2 hPa 0 mm - 0 W/m² -
1788071822 15° C 70% 1311.1 hPa 0 mm - 0 W/m² -
1788071521 14.44° C 71% 1311.3 hPa 0 mm - 0 W/m² -
1788071216 13.89° C 72% 1311.3 hPa 0 mm - 0 W/m² -
1788070911 13.89° C 72% 1311.2 hPa 0 mm - 0 W/m² -
1788070604 15° C 71% 1311.1 hPa 0 mm - 0 W/m² -
1788070300 15° C 70% 1311.1 hPa 0 mm - 0 W/m² -
1788069998 16.11° C 67% 1310.8 hPa 0 mm - 0 W/m² -
1788069693 15.56° C 69% 1310.7 hPa 0 mm - 0 W/m² -
1788069389 15° C 72% 1311.1 hPa 0 mm - 0 W/m² -
1788069085 15° C 72% 1311 hPa 0 mm - 0 W/m² -
1788068780 15° C 72% 1310.8 hPa 0 mm - 0 W/m² -
1788068475 15° C 70% 1311 hPa 0 mm - 0 W/m² -
1788068171 15° C 70% 1310.7 hPa 0 mm - 0 W/m² -
1788067870 15.56° C 70% 1311 hPa 0 mm - 0 W/m² -
1788067566 16.11° C 68% 1310.7 hPa 0 mm - 0 W/m² -
1788067261 16.11° C 68% 1310.6 hPa 0 mm - 0 W/m² -
1788066955 15.56° C 70% 1310.7 hPa 0 mm - 0 W/m² -
1788066651 15.56° C 70% 1310.6 hPa 0 mm - 0 W/m² -
1788066350 16.11° C 69% 1310.6 hPa 0 mm - 0 W/m² -
1788066050 16.67° C 65% 1310.6 hPa 0 mm - 0 W/m² -
1788065743 16.67° C 66% 1310.5 hPa 0 mm - 0 W/m² -
1788065439 16.67° C 67% 1310.6 hPa 0 mm - 0 W/m² -
1788065133 16.67° C 68% 1310.6 hPa 0 mm - 0 W/m² -
1788064828 16.11° C 69% 1310.6 hPa 0 mm - 0 W/m² -

* Rain latest hour (hover to see other rain measurements)
** Current wind speed in m/s (hover to see current wind gust speed)